sensor_id;sensor_type;location;lat;lon;timestamp;P1;durP1;ratioP1;P2;durP2;ratioP2
23146;SDS011;11742;53.532;-1.478;2023-07-20T00:00:06;0.75;;;0.63;;
23146;SDS011;11742;53.532;-1.478;2023-07-20T00:02:51;1.98;;;0.80;;
23146;SDS011;11742;53.532;-1.478;2023-07-20T00:05:35;0.77;;;0.77;;
23146;SDS011;11742;53.532;-1.478;2023-07-20T00:08:22;0.77;;;0.77;;
23146;SDS011;11742;53.532;-1.478;2023-07-20T00:11:07;0.90;;;0.65;;
23146;SDS011;11742;53.532;-1.478;2023-07-20T00:13:51;1.25;;;0.70;;
23146;SDS011;11742;53.532;-1.478;2023-07-20T00:16:35;1.67;;;0.85;;
23146;SDS011;11742;53.532;-1.478;2023-07-20T00:19:20;0.80;;;0.80;;
23146;SDS011;11742;53.532;-1.478;2023-07-20T00:22:05;3.00;;;0.73;;
23146;SDS011;11742;53.532;-1.478;2023-07-20T00:24:49;1.08;;;0.82;;
23146;SDS011;11742;53.532;-1.478;2023-07-20T00:27:34;0.82;;;0.73;;
23146;SDS011;11742;53.532;-1.478;2023-07-20T00:30:18;1.80;;;0.80;;
23146;SDS011;11742;53.532;-1.478;2023-07-20T00:33:02;1.40;;;0.70;;
23146;SDS011;11742;53.532;-1.478;2023-07-20T00:35:46;1.35;;;0.80;;
23146;SDS011;11742;53.532;-1.478;2023-07-20T00:38:30;1.40;;;0.90;;
23146;SDS011;11742;53.532;-1.478;2023-07-20T00:41:14;2.58;;;0.90;;
23146;SDS011;11742;53.532;-1.478;2023-07-20T00:43:58;1.77;;;0.90;;
23146;SDS011;11742;53.532;-1.478;2023-07-20T00:46:42;1.15;;;0.90;;
23146;SDS011;11742;53.532;-1.478;2023-07-20T00:49:28;2.05;;;0.80;;
23146;SDS011;11742;53.532;-1.478;2023-07-20T00:52:13;2.90;;;0.88;;
23146;SDS011;11742;53.532;-1.478;2023-07-20T00:54:58;1.00;;;0.82;;
23146;SDS011;11742;53.532;-1.478;2023-07-20T00:57:43;1.75;;;1.00;;
23146;SDS011;11742;53.532;-1.478;2023-07-20T01:00:27;1.35;;;0.75;;
23146;SDS011;11742;53.532;-1.478;2023-07-20T01:03:11;1.92;;;0.80;;
23146;SDS011;11742;53.532;-1.478;2023-07-20T01:09:12;0.85;;;0.75;;
23146;SDS011;11742;53.532;-1.478;2023-07-20T01:12:08;1.70;;;0.80;;
23146;SDS011;11742;53.532;-1.478;2023-07-20T01:15:06;1.95;;;1.00;;
23146;SDS011;11742;53.532;-1.478;2023-07-20T01:17:51;2.03;;;0.77;;
23146;SDS011;11742;53.532;-1.478;2023-07-20T01:20:35;1.27;;;0.80;;
23146;SDS011;11742;53.532;-1.478;2023-07-20T01:29:33;1.65;;;1.02;;
23146;SDS011;11742;53.532;-1.478;2023-07-20T01:32:26;3.25;;;0.77;;
23146;SDS011;11742;53.532;-1.478;2023-07-20T01:35:13;1.00;;;0.90;;
23146;SDS011;11742;53.532;-1.478;2023-07-20T01:37:59;2.75;;;0.80;;
23146;SDS011;11742;53.532;-1.478;2023-07-20T01:40:44;1.20;;;1.10;;
23146;SDS011;11742;53.532;-1.478;2023-07-20T01:43:29;1.30;;;0.80;;
23146;SDS011;11742;53.532;-1.478;2023-07-20T01:46:13;3.25;;;1.52;;
23146;SDS011;11742;53.532;-1.478;2023-07-20T01:48:57;1.15;;;1.02;;
23146;SDS011;11742;53.532;-1.478;2023-07-20T01:51:42;2.15;;;0.82;;
23146;SDS011;11742;53.532;-1.478;2023-07-20T01:54:26;0.80;;;0.80;;
23146;SDS011;11742;53.532;-1.478;2023-07-20T01:57:10;0.90;;;0.80;;
23146;SDS011;11742;53.532;-1.478;2023-07-20T01:59:54;1.90;;;1.10;;
23146;SDS011;11742;53.532;-1.478;2023-07-20T02:02:39;1.15;;;0.88;;
23146;SDS011;11742;53.532;-1.478;2023-07-20T02:05:25;1.38;;;1.00;;
23146;SDS011;11742;53.532;-1.478;2023-07-20T02:08:09;1.33;;;0.90;;
23146;SDS011;11742;53.532;-1.478;2023-07-20T02:10:53;2.60;;;0.80;;
23146;SDS011;11742;53.532;-1.478;2023-07-20T02:13:38;0.80;;;0.80;;
23146;SDS011;11742;53.532;-1.478;2023-07-20T02:16:22;1.02;;;0.93;;
23146;SDS011;11742;53.532;-1.478;2023-07-20T02:19:07;1.17;;;0.73;;
23146;SDS011;11742;53.532;-1.478;2023-07-20T02:21:51;0.98;;;0.70;;
23146;SDS011;11742;53.532;-1.478;2023-07-20T02:24:36;1.70;;;1.10;;
23146;SDS011;11742;53.532;-1.478;2023-07-20T02:27:20;2.38;;;1.05;;
23146;SDS011;11742;53.532;-1.478;2023-07-20T02:30:05;1.10;;;1.00;;
23146;SDS011;11742;53.532;-1.478;2023-07-20T02:32:50;2.35;;;1.10;;
23146;SDS011;11742;53.532;-1.478;2023-07-20T02:35:34;0.80;;;0.80;;
23146;SDS011;11742;53.532;-1.478;2023-07-20T02:38:18;3.40;;;1.42;;
23146;SDS011;11742;53.532;-1.478;2023-07-20T02:41:03;1.42;;;0.85;;
23146;SDS011;11742;53.532;-1.478;2023-07-20T02:43:47;1.08;;;1.00;;
23146;SDS011;11742;53.532;-1.478;2023-07-20T02:46:31;1.23;;;1.05;;
23146;SDS011;11742;53.532;-1.478;2023-07-20T02:49:15;1.10;;;0.95;;
23146;SDS011;11742;53.532;-1.478;2023-07-20T02:52:00;2.60;;;1.02;;
23146;SDS011;11742;53.532;-1.478;2023-07-20T02:54:44;1.00;;;0.90;;
23146;SDS011;11742;53.532;-1.478;2023-07-20T02:57:29;2.28;;;1.00;;
23146;SDS011;11742;53.532;-1.478;2023-07-20T03:00:13;1.90;;;1.00;;
23146;SDS011;11742;53.532;-1.478;2023-07-20T03:02:59;1.75;;;1.20;;
23146;SDS011;11742;53.532;-1.478;2023-07-20T03:05:43;1.80;;;1.20;;
23146;SDS011;11742;53.532;-1.478;2023-07-20T03:08:27;1.35;;;1.23;;
23146;SDS011;11742;53.532;-1.478;2023-07-20T03:11:11;3.13;;;1.30;;
23146;SDS011;11742;53.532;-1.478;2023-07-20T03:13:56;1.27;;;1.17;;
23146;SDS011;11742;53.532;-1.478;2023-07-20T03:16:40;1.92;;;1.48;;
23146;SDS011;11742;53.532;-1.478;2023-07-20T03:19:24;1.02;;;0.93;;
23146;SDS011;11742;53.532;-1.478;2023-07-20T03:22:09;2.03;;;1.25;;
23146;SDS011;11742;53.532;-1.478;2023-07-20T03:24:53;2.67;;;1.38;;
23146;SDS011;11742;53.532;-1.478;2023-07-20T03:27:37;2.60;;;1.40;;
23146;SDS011;11742;53.532;-1.478;2023-07-20T03:30:21;2.53;;;1.42;;
23146;SDS011;11742;53.532;-1.478;2023-07-20T03:33:07;3.58;;;1.40;;
23146;SDS011;11742;53.532;-1.478;2023-07-20T03:35:51;2.60;;;1.38;;
23146;SDS011;11742;53.532;-1.478;2023-07-20T03:38:36;2.90;;;1.30;;
23146;SDS011;11742;53.532;-1.478;2023-07-20T03:41:20;2.08;;;1.42;;
23146;SDS011;11742;53.532;-1.478;2023-07-20T03:44:05;1.55;;;1.38;;
23146;SDS011;11742;53.532;-1.478;2023-07-20T03:46:49;1.83;;;1.48;;
23146;SDS011;11742;53.532;-1.478;2023-07-20T03:49:33;5.15;;;1.23;;
23146;SDS011;11742;53.532;-1.478;2023-07-20T03:52:17;1.38;;;1.27;;
23146;SDS011;11742;53.532;-1.478;2023-07-20T03:55:01;2.65;;;1.42;;
23146;SDS011;11742;53.532;-1.478;2023-07-20T03:57:46;2.13;;;1.42;;
23146;SDS011;11742;53.532;-1.478;2023-07-20T04:00:31;2.15;;;1.30;;
23146;SDS011;11742;53.532;-1.478;2023-07-20T04:03:15;3.85;;;1.55;;
23146;SDS011;11742;53.532;-1.478;2023-07-20T04:06:00;1.40;;;1.17;;
23146;SDS011;11742;53.532;-1.478;2023-07-20T04:08:44;2.45;;;1.50;;
23146;SDS011;11742;53.532;-1.478;2023-07-20T04:11:31;1.30;;;1.20;;
23146;SDS011;11742;53.532;-1.478;2023-07-20T04:14:15;5.07;;;1.73;;
23146;SDS011;11742;53.532;-1.478;2023-07-20T04:16:59;2.88;;;1.70;;
23146;SDS011;11742;53.532;-1.478;2023-07-20T04:19:44;1.75;;;1.58;;
23146;SDS011;11742;53.532;-1.478;2023-07-20T04:22:28;3.03;;;1.65;;
23146;SDS011;11742;53.532;-1.478;2023-07-20T04:25:13;2.60;;;1.25;;
23146;SDS011;11742;53.532;-1.478;2023-07-20T04:27:57;1.50;;;1.40;;
23146;SDS011;11742;53.532;-1.478;2023-07-20T04:30:42;2.50;;;1.50;;
23146;SDS011;11742;53.532;-1.478;2023-07-20T04:33:27;2.50;;;1.50;;
23146;SDS011;11742;53.532;-1.478;2023-07-20T04:36:12;2.38;;;1.50;;
23146;SDS011;11742;53.532;-1.478;2023-07-20T04:39:00;2.65;;;1.73;;
23146;SDS011;11742;53.532;-1.478;2023-07-20T04:41:44;4.38;;;1.90;;
23146;SDS011;11742;53.532;-1.478;2023-07-20T04:44:28;2.53;;;1.70;;
23146;SDS011;11742;53.532;-1.478;2023-07-20T04:47:12;1.52;;;1.35;;
23146;SDS011;11742;53.532;-1.478;2023-07-20T04:49:56;2.92;;;1.70;;
23146;SDS011;11742;53.532;-1.478;2023-07-20T04:52:41;2.10;;;1.70;;
23146;SDS011;11742;53.532;-1.478;2023-07-20T04:55:25;2.75;;;1.75;;
23146;SDS011;11742;53.532;-1.478;2023-07-20T04:58:09;1.65;;;1.40;;
23146;SDS011;11742;53.532;-1.478;2023-07-20T05:00:53;1.90;;;1.60;;
23146;SDS011;11742;53.532;-1.478;2023-07-20T05:03:37;2.75;;;1.80;;
23146;SDS011;11742;53.532;-1.478;2023-07-20T05:06:21;4.18;;;1.80;;
23146;SDS011;11742;53.532;-1.478;2023-07-20T05:09:05;2.88;;;2.08;;
23146;SDS011;11742;53.532;-1.478;2023-07-20T05:11:50;3.55;;;2.10;;
23146;SDS011;11742;53.532;-1.478;2023-07-20T05:14:34;3.03;;;2.00;;
23146;SDS011;11742;53.532;-1.478;2023-07-20T05:17:19;3.40;;;2.42;;
23146;SDS011;11742;53.532;-1.478;2023-07-20T05:20:03;3.65;;;2.35;;
23146;SDS011;11742;53.532;-1.478;2023-07-20T05:22:48;2.53;;;2.10;;
23146;SDS011;11742;53.532;-1.478;2023-07-20T05:25:32;3.58;;;2.70;;
23146;SDS011;11742;53.532;-1.478;2023-07-20T05:28:17;2.58;;;2.20;;
23146;SDS011;11742;53.532;-1.478;2023-07-20T05:31:04;4.53;;;2.80;;
23146;SDS011;11742;53.532;-1.478;2023-07-20T05:33:49;3.50;;;2.63;;
23146;SDS011;11742;53.532;-1.478;2023-07-20T05:36:33;3.58;;;2.53;;
23146;SDS011;11742;53.532;-1.478;2023-07-20T05:39:17;3.40;;;2.22;;
23146;SDS011;11742;53.532;-1.478;2023-07-20T05:42:02;4.32;;;2.80;;
23146;SDS011;11742;53.532;-1.478;2023-07-20T05:44:46;4.13;;;2.67;;
23146;SDS011;11742;53.532;-1.478;2023-07-20T05:47:31;3.88;;;2.92;;
23146;SDS011;11742;53.532;-1.478;2023-07-20T05:50:16;4.22;;;3.17;;
23146;SDS011;11742;53.532;-1.478;2023-07-20T05:53:01;4.43;;;3.20;;
23146;SDS011;11742;53.532;-1.478;2023-07-20T05:55:51;5.05;;;3.20;;
23146;SDS011;11742;53.532;-1.478;2023-07-20T05:58:37;4.10;;;3.05;;
23146;SDS011;11742;53.532;-1.478;2023-07-20T06:01:21;5.15;;;3.42;;
23146;SDS011;11742;53.532;-1.478;2023-07-20T06:04:05;4.68;;;3.42;;
23146;SDS011;11742;53.532;-1.478;2023-07-20T06:06:50;5.50;;;3.25;;
23146;SDS011;11742;53.532;-1.478;2023-07-20T06:09:34;5.47;;;3.78;;
23146;SDS011;11742;53.532;-1.478;2023-07-20T06:12:19;6.40;;;3.63;;
23146;SDS011;11742;53.532;-1.478;2023-07-20T06:15:04;5.32;;;3.30;;
23146;SDS011;11742;53.532;-1.478;2023-07-20T06:17:49;5.10;;;3.38;;
23146;SDS011;11742;53.532;-1.478;2023-07-20T06:20:33;5.22;;;3.72;;
23146;SDS011;11742;53.532;-1.478;2023-07-20T06:23:21;4.90;;;3.33;;
23146;SDS011;11742;53.532;-1.478;2023-07-20T06:26:06;5.20;;;3.75;;
23146;SDS011;11742;53.532;-1.478;2023-07-20T06:28:51;6.40;;;3.80;;
23146;SDS011;11742;53.532;-1.478;2023-07-20T06:31:35;5.28;;;3.58;;
23146;SDS011;11742;53.532;-1.478;2023-07-20T06:34:20;5.43;;;3.50;;
23146;SDS011;11742;53.532;-1.478;2023-07-20T06:37:04;6.70;;;3.92;;
23146;SDS011;11742;53.532;-1.478;2023-07-20T06:39:49;4.95;;;3.72;;
23146;SDS011;11742;53.532;-1.478;2023-07-20T06:42:33;5.00;;;3.60;;
23146;SDS011;11742;53.532;-1.478;2023-07-20T06:45:17;6.90;;;4.25;;
23146;SDS011;11742;53.532;-1.478;2023-07-20T06:48:01;6.53;;;3.83;;
23146;SDS011;11742;53.532;-1.478;2023-07-20T06:50:47;6.18;;;4.30;;
23146;SDS011;11742;53.532;-1.478;2023-07-20T06:53:32;5.57;;;3.70;;
23146;SDS011;11742;53.532;-1.478;2023-07-20T06:56:16;6.07;;;3.83;;
23146;SDS011;11742;53.532;-1.478;2023-07-20T06:59:01;5.88;;;3.75;;
23146;SDS011;11742;53.532;-1.478;2023-07-20T07:01:46;5.70;;;3.92;;
23146;SDS011;11742;53.532;-1.478;2023-07-20T07:04:31;6.22;;;4.22;;
23146;SDS011;11742;53.532;-1.478;2023-07-20T07:07:15;7.00;;;4.57;;
23146;SDS011;11742;53.532;-1.478;2023-07-20T07:10:00;6.78;;;4.38;;
23146;SDS011;11742;53.532;-1.478;2023-07-20T07:12:48;6.97;;;4.05;;
23146;SDS011;11742;53.532;-1.478;2023-07-20T07:15:33;7.80;;;4.10;;
23146;SDS011;11742;53.532;-1.478;2023-07-20T07:18:17;6.95;;;4.53;;
23146;SDS011;11742;53.532;-1.478;2023-07-20T07:21:04;5.97;;;3.95;;
23146;SDS011;11742;53.532;-1.478;2023-07-20T07:23:48;5.53;;;3.60;;
23146;SDS011;11742;53.532;-1.478;2023-07-20T07:26:33;8.30;;;4.13;;
23146;SDS011;11742;53.532;-1.478;2023-07-20T07:29:17;6.00;;;4.05;;
23146;SDS011;11742;53.532;-1.478;2023-07-20T07:32:02;5.55;;;3.80;;
23146;SDS011;11742;53.532;-1.478;2023-07-20T07:34:46;6.45;;;4.13;;
23146;SDS011;11742;53.532;-1.478;2023-07-20T07:37:31;6.15;;;3.97;;
23146;SDS011;11742;53.532;-1.478;2023-07-20T07:40:15;7.72;;;4.47;;
23146;SDS011;11742;53.532;-1.478;2023-07-20T07:43:00;6.30;;;4.10;;
23146;SDS011;11742;53.532;-1.478;2023-07-20T07:45:44;7.68;;;4.13;;
23146;SDS011;11742;53.532;-1.478;2023-07-20T07:48:28;5.82;;;4.10;;
23146;SDS011;11742;53.532;-1.478;2023-07-20T07:51:13;7.93;;;4.93;;
23146;SDS011;11742;53.532;-1.478;2023-07-20T07:53:59;5.10;;;3.53;;
23146;SDS011;11742;53.532;-1.478;2023-07-20T07:56:43;6.47;;;3.67;;
23146;SDS011;11742;53.532;-1.478;2023-07-20T07:59:28;6.95;;;4.30;;
23146;SDS011;11742;53.532;-1.478;2023-07-20T08:02:13;7.63;;;4.70;;
23146;SDS011;11742;53.532;-1.478;2023-07-20T08:04:57;6.15;;;4.18;;
23146;SDS011;11742;53.532;-1.478;2023-07-20T08:07:41;6.53;;;4.57;;
23146;SDS011;11742;53.532;-1.478;2023-07-20T08:10:26;5.63;;;4.07;;
23146;SDS011;11742;53.532;-1.478;2023-07-20T08:13:11;6.20;;;4.13;;
23146;SDS011;11742;53.532;-1.478;2023-07-20T08:15:55;6.25;;;4.07;;
23146;SDS011;11742;53.532;-1.478;2023-07-20T08:18:39;5.93;;;3.97;;
23146;SDS011;11742;53.532;-1.478;2023-07-20T08:21:23;5.10;;;3.50;;
23146;SDS011;11742;53.532;-1.478;2023-07-20T08:24:07;5.30;;;3.60;;
23146;SDS011;11742;53.532;-1.478;2023-07-20T08:26:52;5.78;;;3.80;;
23146;SDS011;11742;53.532;-1.478;2023-07-20T08:29:36;5.93;;;4.10;;
23146;SDS011;11742;53.532;-1.478;2023-07-20T08:32:21;6.03;;;3.88;;
23146;SDS011;11742;53.532;-1.478;2023-07-20T08:35:06;4.80;;;3.45;;
23146;SDS011;11742;53.532;-1.478;2023-07-20T08:37:50;6.47;;;4.03;;
23146;SDS011;11742;53.532;-1.478;2023-07-20T08:40:39;4.30;;;3.17;;
23146;SDS011;11742;53.532;-1.478;2023-07-20T08:43:29;4.45;;;3.42;;
23146;SDS011;11742;53.532;-1.478;2023-07-20T08:46:15;5.32;;;3.78;;
23146;SDS011;11742;53.532;-1.478;2023-07-20T08:49:00;7.88;;;3.95;;
23146;SDS011;11742;53.532;-1.478;2023-07-20T08:51:46;4.53;;;3.17;;
23146;SDS011;11742;53.532;-1.478;2023-07-20T08:54:32;5.20;;;3.60;;
23146;SDS011;11742;53.532;-1.478;2023-07-20T08:57:17;4.35;;;3.42;;
23146;SDS011;11742;53.532;-1.478;2023-07-20T09:00:05;6.00;;;3.60;;
23146;SDS011;11742;53.532;-1.478;2023-07-20T09:02:56;4.80;;;3.33;;
23146;SDS011;11742;53.532;-1.478;2023-07-20T09:05:44;5.70;;;3.88;;
23146;SDS011;11742;53.532;-1.478;2023-07-20T09:08:29;6.03;;;3.75;;
23146;SDS011;11742;53.532;-1.478;2023-07-20T09:11:14;5.63;;;3.70;;
23146;SDS011;11742;53.532;-1.478;2023-07-20T09:14:03;5.13;;;3.63;;
23146;SDS011;11742;53.532;-1.478;2023-07-20T09:16:54;6.38;;;4.13;;
23146;SDS011;11742;53.532;-1.478;2023-07-20T09:19:45;6.60;;;4.40;;
23146;SDS011;11742;53.532;-1.478;2023-07-20T09:22:31;5.05;;;3.67;;
23146;SDS011;11742;53.532;-1.478;2023-07-20T09:25:17;5.95;;;3.83;;
23146;SDS011;11742;53.532;-1.478;2023-07-20T09:28:06;5.72;;;4.10;;
23146;SDS011;11742;53.532;-1.478;2023-07-20T09:30:50;6.70;;;4.30;;
23146;SDS011;11742;53.532;-1.478;2023-07-20T09:33:35;5.85;;;3.85;;
23146;SDS011;11742;53.532;-1.478;2023-07-20T09:36:22;6.05;;;4.55;;
23146;SDS011;11742;53.532;-1.478;2023-07-20T09:39:06;6.30;;;3.90;;
23146;SDS011;11742;53.532;-1.478;2023-07-20T09:41:51;5.75;;;4.30;;
23146;SDS011;11742;53.532;-1.478;2023-07-20T09:44:36;7.88;;;4.28;;
23146;SDS011;11742;53.532;-1.478;2023-07-20T09:47:24;5.55;;;3.80;;
23146;SDS011;11742;53.532;-1.478;2023-07-20T09:50:09;5.07;;;3.53;;
23146;SDS011;11742;53.532;-1.478;2023-07-20T09:52:56;6.43;;;3.75;;
23146;SDS011;11742;53.532;-1.478;2023-07-20T09:55:41;4.32;;;3.17;;
23146;SDS011;11742;53.532;-1.478;2023-07-20T09:58:27;4.95;;;3.10;;
23146;SDS011;11742;53.532;-1.478;2023-07-20T10:01:12;7.35;;;3.35;;
23146;SDS011;11742;53.532;-1.478;2023-07-20T10:04:02;4.30;;;3.40;;
23146;SDS011;11742;53.532;-1.478;2023-07-20T10:06:48;4.95;;;3.30;;
23146;SDS011;11742;53.532;-1.478;2023-07-20T10:09:36;4.28;;;3.30;;
23146;SDS011;11742;53.532;-1.478;2023-07-20T10:12:23;4.65;;;3.28;;
23146;SDS011;11742;53.532;-1.478;2023-07-20T10:15:11;4.75;;;3.58;;
23146;SDS011;11742;53.532;-1.478;2023-07-20T10:20:46;5.55;;;3.83;;
23146;SDS011;11742;53.532;-1.478;2023-07-20T10:23:32;5.72;;;3.95;;
23146;SDS011;11742;53.532;-1.478;2023-07-20T10:26:18;4.85;;;3.08;;
23146;SDS011;11742;53.532;-1.478;2023-07-20T10:29:02;3.85;;;3.05;;
23146;SDS011;11742;53.532;-1.478;2023-07-20T10:31:48;5.15;;;3.40;;
23146;SDS011;11742;53.532;-1.478;2023-07-20T10:34:33;4.07;;;2.97;;
23146;SDS011;11742;53.532;-1.478;2023-07-20T10:40:38;5.40;;;3.65;;
23146;SDS011;11742;53.532;-1.478;2023-07-20T10:43:23;4.28;;;3.17;;
23146;SDS011;11742;53.532;-1.478;2023-07-20T10:46:07;4.65;;;3.85;;
23146;SDS011;11742;53.532;-1.478;2023-07-20T10:49:01;6.45;;;4.03;;
23146;SDS011;11742;53.532;-1.478;2023-07-20T10:51:47;4.55;;;3.72;;
23146;SDS011;11742;53.532;-1.478;2023-07-20T10:54:48;5.45;;;4.07;;
23146;SDS011;11742;53.532;-1.478;2023-07-20T10:57:33;5.70;;;3.85;;
23146;SDS011;11742;53.532;-1.478;2023-07-20T11:00:18;6.00;;;3.50;;
23146;SDS011;11742;53.532;-1.478;2023-07-20T11:03:06;5.43;;;3.78;;
23146;SDS011;11742;53.532;-1.478;2023-07-20T11:05:50;4.95;;;3.55;;
23146;SDS011;11742;53.532;-1.478;2023-07-20T11:08:39;5.57;;;3.58;;
23146;SDS011;11742;53.532;-1.478;2023-07-20T11:11:29;7.30;;;4.30;;
23146;SDS011;11742;53.532;-1.478;2023-07-20T11:14:21;6.32;;;3.65;;
23146;SDS011;11742;53.532;-1.478;2023-07-20T11:17:13;5.35;;;3.85;;
23146;SDS011;11742;53.532;-1.478;2023-07-20T11:19:59;4.93;;;3.97;;
23146;SDS011;11742;53.532;-1.478;2023-07-20T11:22:44;3.63;;;3.05;;
23146;SDS011;11742;53.532;-1.478;2023-07-20T11:25:39;3.70;;;3.10;;
23146;SDS011;11742;53.532;-1.478;2023-07-20T11:28:24;4.50;;;3.30;;
23146;SDS011;11742;53.532;-1.478;2023-07-20T11:31:08;4.22;;;3.38;;
23146;SDS011;11742;53.532;-1.478;2023-07-20T11:33:53;4.03;;;3.53;;
23146;SDS011;11742;53.532;-1.478;2023-07-20T11:36:37;7.32;;;3.60;;
23146;SDS011;11742;53.532;-1.478;2023-07-20T11:39:24;4.88;;;3.75;;
23146;SDS011;11742;53.532;-1.478;2023-07-20T11:42:09;4.05;;;3.20;;
23146;SDS011;11742;53.532;-1.478;2023-07-20T11:44:55;4.28;;;3.33;;
23146;SDS011;11742;53.532;-1.478;2023-07-20T11:47:43;3.65;;;2.60;;
23146;SDS011;11742;53.532;-1.478;2023-07-20T11:50:28;4.13;;;2.88;;
23146;SDS011;11742;53.532;-1.478;2023-07-20T11:53:13;4.18;;;3.15;;
23146;SDS011;11742;53.532;-1.478;2023-07-20T11:55:58;4.15;;;2.78;;
23146;SDS011;11742;53.532;-1.478;2023-07-20T11:58:44;3.83;;;2.70;;
23146;SDS011;11742;53.532;-1.478;2023-07-20T12:01:29;4.55;;;3.13;;
23146;SDS011;11742;53.532;-1.478;2023-07-20T12:04:19;4.80;;;3.60;;
23146;SDS011;11742;53.532;-1.478;2023-07-20T12:07:07;4.88;;;3.15;;
23146;SDS011;11742;53.532;-1.478;2023-07-20T12:10:07;4.80;;;3.30;;
23146;SDS011;11742;53.532;-1.478;2023-07-20T12:12:53;3.72;;;2.83;;
23146;SDS011;11742;53.532;-1.478;2023-07-20T12:15:38;5.72;;;3.28;;
23146;SDS011;11742;53.532;-1.478;2023-07-20T12:18:23;4.22;;;3.00;;
23146;SDS011;11742;53.532;-1.478;2023-07-20T12:21:17;3.85;;;2.70;;
23146;SDS011;11742;53.532;-1.478;2023-07-20T12:24:03;4.65;;;3.35;;
23146;SDS011;11742;53.532;-1.478;2023-07-20T12:26:48;4.55;;;3.53;;
23146;SDS011;11742;53.532;-1.478;2023-07-20T12:29:39;3.55;;;3.03;;
23146;SDS011;11742;53.532;-1.478;2023-07-20T12:32:23;4.25;;;2.95;;
23146;SDS011;11742;53.532;-1.478;2023-07-20T12:35:07;4.00;;;3.13;;
23146;SDS011;11742;53.532;-1.478;2023-07-20T12:37:52;5.03;;;3.60;;
23146;SDS011;11742;53.532;-1.478;2023-07-20T12:40:37;4.38;;;3.17;;
23146;SDS011;11742;53.532;-1.478;2023-07-20T12:43:21;4.18;;;2.90;;
23146;SDS011;11742;53.532;-1.478;2023-07-20T12:46:06;4.47;;;2.95;;
23146;SDS011;11742;53.532;-1.478;2023-07-20T12:48:51;4.13;;;3.20;;
23146;SDS011;11742;53.532;-1.478;2023-07-20T12:51:35;4.47;;;3.42;;
23146;SDS011;11742;53.532;-1.478;2023-07-20T12:54:19;5.88;;;3.08;;
23146;SDS011;11742;53.532;-1.478;2023-07-20T12:57:03;4.90;;;3.03;;
23146;SDS011;11742;53.532;-1.478;2023-07-20T12:59:48;4.55;;;3.33;;
23146;SDS011;11742;53.532;-1.478;2023-07-20T13:02:32;5.97;;;3.22;;
23146;SDS011;11742;53.532;-1.478;2023-07-20T13:05:17;4.38;;;3.10;;
23146;SDS011;11742;53.532;-1.478;2023-07-20T13:08:02;5.82;;;3.20;;
23146;SDS011;11742;53.532;-1.478;2023-07-20T13:10:47;4.55;;;3.35;;
23146;SDS011;11742;53.532;-1.478;2023-07-20T13:13:31;4.55;;;3.45;;
23146;SDS011;11742;53.532;-1.478;2023-07-20T13:16:15;5.50;;;2.75;;
23146;SDS011;11742;53.532;-1.478;2023-07-20T13:19:00;6.18;;;3.35;;
23146;SDS011;11742;53.532;-1.478;2023-07-20T13:21:44;3.95;;;2.85;;
23146;SDS011;11742;53.532;-1.478;2023-07-20T13:24:28;5.88;;;3.25;;
23146;SDS011;11742;53.532;-1.478;2023-07-20T13:27:12;4.10;;;3.30;;
23146;SDS011;11742;53.532;-1.478;2023-07-20T13:29:57;5.35;;;2.90;;
23146;SDS011;11742;53.532;-1.478;2023-07-20T13:32:42;4.82;;;3.00;;
23146;SDS011;11742;53.532;-1.478;2023-07-20T13:35:27;3.13;;;2.67;;
23146;SDS011;11742;53.532;-1.478;2023-07-20T13:38:11;3.95;;;2.75;;
23146;SDS011;11742;53.532;-1.478;2023-07-20T13:40:56;4.28;;;2.92;;
23146;SDS011;11742;53.532;-1.478;2023-07-20T13:43:40;3.50;;;2.80;;
23146;SDS011;11742;53.532;-1.478;2023-07-20T13:46:25;3.65;;;2.80;;
23146;SDS011;11742;53.532;-1.478;2023-07-20T13:49:10;4.05;;;2.83;;
23146;SDS011;11742;53.532;-1.478;2023-07-20T13:51:55;2.60;;;2.03;;
23146;SDS011;11742;53.532;-1.478;2023-07-20T13:54:40;4.72;;;2.60;;
23146;SDS011;11742;53.532;-1.478;2023-07-20T13:57:25;2.65;;;2.30;;
23146;SDS011;11742;53.532;-1.478;2023-07-20T14:00:09;2.97;;;2.20;;
23146;SDS011;11742;53.532;-1.478;2023-07-20T14:02:54;3.63;;;2.60;;
23146;SDS011;11742;53.532;-1.478;2023-07-20T14:05:38;2.78;;;2.13;;
23146;SDS011;11742;53.532;-1.478;2023-07-20T14:08:22;2.58;;;2.20;;
23146;SDS011;11742;53.532;-1.478;2023-07-20T14:11:06;4.32;;;2.65;;
23146;SDS011;11742;53.532;-1.478;2023-07-20T14:13:51;3.53;;;2.20;;
23146;SDS011;11742;53.532;-1.478;2023-07-20T14:16:39;2.20;;;1.90;;
23146;SDS011;11742;53.532;-1.478;2023-07-20T14:19:23;3.28;;;1.98;;
23146;SDS011;11742;53.532;-1.478;2023-07-20T14:22:08;2.20;;;2.00;;
23146;SDS011;11742;53.532;-1.478;2023-07-20T14:24:52;2.70;;;2.10;;
23146;SDS011;11742;53.532;-1.478;2023-07-20T14:27:36;4.57;;;2.00;;
23146;SDS011;11742;53.532;-1.478;2023-07-20T14:30:21;2.05;;;1.80;;
23146;SDS011;11742;53.532;-1.478;2023-07-20T14:33:05;3.35;;;2.10;;
23146;SDS011;11742;53.532;-1.478;2023-07-20T14:35:49;1.88;;;1.67;;
23146;SDS011;11742;53.532;-1.478;2023-07-20T14:38:34;1.98;;;1.75;;
23146;SDS011;11742;53.532;-1.478;2023-07-20T14:41:19;2.33;;;1.90;;
23146;SDS011;11742;53.532;-1.478;2023-07-20T14:44:04;2.42;;;1.58;;
23146;SDS011;11742;53.532;-1.478;2023-07-20T14:46:48;1.90;;;1.70;;
23146;SDS011;11742;53.532;-1.478;2023-07-20T14:49:32;2.20;;;1.75;;
23146;SDS011;11742;53.532;-1.478;2023-07-20T14:52:16;2.35;;;1.90;;
23146;SDS011;11742;53.532;-1.478;2023-07-20T14:55:01;2.42;;;1.75;;
23146;SDS011;11742;53.532;-1.478;2023-07-20T14:57:45;2.30;;;1.90;;
23146;SDS011;11742;53.532;-1.478;2023-07-20T15:00:31;2.00;;;1.70;;
23146;SDS011;11742;53.532;-1.478;2023-07-20T15:03:16;2.38;;;2.00;;
23146;SDS011;11742;53.532;-1.478;2023-07-20T15:06:01;1.80;;;1.65;;
23146;SDS011;11742;53.532;-1.478;2023-07-20T15:08:46;2.42;;;1.90;;
23146;SDS011;11742;53.532;-1.478;2023-07-20T15:11:30;2.50;;;1.70;;
23146;SDS011;11742;53.532;-1.478;2023-07-20T15:14:14;2.97;;;1.70;;
23146;SDS011;11742;53.532;-1.478;2023-07-20T15:16:58;2.40;;;2.03;;
23146;SDS011;11742;53.532;-1.478;2023-07-20T15:19:43;5.00;;;2.30;;
23146;SDS011;11742;53.532;-1.478;2023-07-20T15:22:27;2.85;;;2.00;;
23146;SDS011;11742;53.532;-1.478;2023-07-20T15:25:11;3.85;;;2.15;;
23146;SDS011;11742;53.532;-1.478;2023-07-20T15:27:55;2.67;;;2.00;;
23146;SDS011;11742;53.532;-1.478;2023-07-20T15:30:39;3.65;;;2.40;;
23146;SDS011;11742;53.532;-1.478;2023-07-20T15:33:24;2.83;;;1.98;;
23146;SDS011;11742;53.532;-1.478;2023-07-20T15:36:08;3.20;;;2.10;;
23146;SDS011;11742;53.532;-1.478;2023-07-20T15:38:52;3.78;;;2.25;;
23146;SDS011;11742;53.532;-1.478;2023-07-20T15:41:37;3.35;;;2.63;;
23146;SDS011;11742;53.532;-1.478;2023-07-20T15:44:21;3.83;;;2.80;;
23146;SDS011;11742;53.532;-1.478;2023-07-20T15:47:06;3.63;;;2.60;;
23146;SDS011;11742;53.532;-1.478;2023-07-20T15:49:50;4.25;;;2.90;;
23146;SDS011;11742;53.532;-1.478;2023-07-20T15:52:34;2.92;;;2.40;;
23146;SDS011;11742;53.532;-1.478;2023-07-20T15:55:18;3.63;;;2.78;;
23146;SDS011;11742;53.532;-1.478;2023-07-20T15:58:02;3.65;;;2.70;;
23146;SDS011;11742;53.532;-1.478;2023-07-20T16:00:52;3.70;;;2.50;;
23146;SDS011;11742;53.532;-1.478;2023-07-20T16:03:38;3.50;;;2.80;;
23146;SDS011;11742;53.532;-1.478;2023-07-20T16:06:22;3.88;;;2.60;;
23146;SDS011;11742;53.532;-1.478;2023-07-20T16:09:07;4.70;;;2.65;;
23146;SDS011;11742;53.532;-1.478;2023-07-20T16:11:51;4.35;;;2.97;;
23146;SDS011;11742;53.532;-1.478;2023-07-20T16:14:36;4.30;;;2.72;;
23146;SDS011;11742;53.532;-1.478;2023-07-20T16:17:21;3.75;;;2.70;;
23146;SDS011;11742;53.532;-1.478;2023-07-20T16:20:05;3.50;;;2.65;;
23146;SDS011;11742;53.532;-1.478;2023-07-20T16:22:51;4.57;;;3.03;;
23146;SDS011;11742;53.532;-1.478;2023-07-20T16:25:35;4.18;;;2.88;;
23146;SDS011;11742;53.532;-1.478;2023-07-20T16:28:19;5.07;;;2.90;;
23146;SDS011;11742;53.532;-1.478;2023-07-20T16:31:11;3.05;;;2.58;;
23146;SDS011;11742;53.532;-1.478;2023-07-20T16:33:55;3.15;;;2.72;;